sensor_id;sensor_type;location;lat;lon;timestamp;P1;durP1;ratioP1;P2;durP2;ratioP2
5225;SDS011;2632;51.666;7.146;2023-03-05T00:01:05;9.50;;;2.40;;
5225;SDS011;2632;51.666;7.146;2023-03-05T00:03:32;10.07;;;2.30;;
5225;SDS011;2632;51.666;7.146;2023-03-05T00:05:59;5.27;;;2.20;;
5225;SDS011;2632;51.666;7.146;2023-03-05T00:08:26;8.67;;;2.87;;
5225;SDS011;2632;51.666;7.146;2023-03-05T00:11:00;7.20;;;2.17;;
5225;SDS011;2632;51.666;7.146;2023-03-05T00:13:33;9.10;;;2.10;;
5225;SDS011;2632;51.666;7.146;2023-03-05T00:16:04;8.13;;;3.00;;
5225;SDS011;2632;51.666;7.146;2023-03-05T00:18:33;5.33;;;2.07;;
5225;SDS011;2632;51.666;7.146;2023-03-05T00:21:00;5.73;;;3.07;;
5225;SDS011;2632;51.666;7.146;2023-03-05T00:23:28;7.20;;;2.90;;
5225;SDS011;2632;51.666;7.146;2023-03-05T00:25:55;7.17;;;2.40;;
5225;SDS011;2632;51.666;7.146;2023-03-05T00:28:21;10.40;;;3.40;;
5225;SDS011;2632;51.666;7.146;2023-03-05T00:30:48;6.00;;;1.97;;
5225;SDS011;2632;51.666;7.146;2023-03-05T00:33:14;6.97;;;2.40;;
5225;SDS011;2632;51.666;7.146;2023-03-05T00:35:41;7.47;;;2.50;;
5225;SDS011;2632;51.666;7.146;2023-03-05T00:38:10;17.20;;;2.77;;
5225;SDS011;2632;51.666;7.146;2023-03-05T00:40:38;9.70;;;2.40;;
5225;SDS011;2632;51.666;7.146;2023-03-05T00:43:06;12.23;;;2.60;;
5225;SDS011;2632;51.666;7.146;2023-03-05T00:45:33;7.23;;;1.97;;
5225;SDS011;2632;51.666;7.146;2023-03-05T00:48:00;9.30;;;2.30;;
5225;SDS011;2632;51.666;7.146;2023-03-05T00:50:27;8.43;;;2.40;;
5225;SDS011;2632;51.666;7.146;2023-03-05T00:52:54;18.53;;;2.77;;
5225;SDS011;2632;51.666;7.146;2023-03-05T00:55:20;7.03;;;2.37;;
5225;SDS011;2632;51.666;7.146;2023-03-05T00:57:47;4.60;;;2.20;;
5225;SDS011;2632;51.666;7.146;2023-03-05T01:00:14;5.37;;;1.93;;
5225;SDS011;2632;51.666;7.146;2023-03-05T01:02:41;7.93;;;1.90;;
5225;SDS011;2632;51.666;7.146;2023-03-05T01:05:10;5.70;;;2.07;;
5225;SDS011;2632;51.666;7.146;2023-03-05T01:07:38;7.57;;;1.80;;
5225;SDS011;2632;51.666;7.146;2023-03-05T01:10:05;8.10;;;2.47;;
5225;SDS011;2632;51.666;7.146;2023-03-05T01:12:33;5.20;;;1.90;;
5225;SDS011;2632;51.666;7.146;2023-03-05T01:15:00;5.30;;;2.13;;
5225;SDS011;2632;51.666;7.146;2023-03-05T01:17:26;6.23;;;1.83;;
5225;SDS011;2632;51.666;7.146;2023-03-05T01:19:53;8.47;;;3.13;;
5225;SDS011;2632;51.666;7.146;2023-03-05T01:22:20;6.90;;;2.03;;
5225;SDS011;2632;51.666;7.146;2023-03-05T01:24:46;7.47;;;2.27;;
5225;SDS011;2632;51.666;7.146;2023-03-05T01:27:13;6.33;;;1.73;;
5225;SDS011;2632;51.666;7.146;2023-03-05T01:29:40;5.90;;;1.43;;
5225;SDS011;2632;51.666;7.146;2023-03-05T01:32:06;4.30;;;1.77;;
5225;SDS011;2632;51.666;7.146;2023-03-05T01:34:34;10.23;;;2.17;;
5225;SDS011;2632;51.666;7.146;2023-03-05T01:37:02;6.13;;;1.70;;
5225;SDS011;2632;51.666;7.146;2023-03-05T01:39:31;12.57;;;2.73;;
5225;SDS011;2632;51.666;7.146;2023-03-05T01:41:57;7.27;;;1.90;;
5225;SDS011;2632;51.666;7.146;2023-03-05T01:44:26;7.47;;;2.10;;
5225;SDS011;2632;51.666;7.146;2023-03-05T01:46:54;9.60;;;2.30;;
5225;SDS011;2632;51.666;7.146;2023-03-05T01:49:26;4.33;;;1.60;;
5225;SDS011;2632;51.666;7.146;2023-03-05T01:54:43;5.17;;;1.23;;
5225;SDS011;2632;51.666;7.146;2023-03-05T01:57:17;8.00;;;2.10;;
5225;SDS011;2632;51.666;7.146;2023-03-05T01:59:52;7.30;;;2.13;;
5225;SDS011;2632;51.666;7.146;2023-03-05T02:02:25;3.40;;;1.37;;
5225;SDS011;2632;51.666;7.146;2023-03-05T02:07:57;10.47;;;1.50;;
5225;SDS011;2632;51.666;7.146;2023-03-05T02:10:26;3.30;;;1.40;;
5225;SDS011;2632;51.666;7.146;2023-03-05T02:12:59;1.90;;;1.50;;
5225;SDS011;2632;51.666;7.146;2023-03-05T02:15:29;10.87;;;1.63;;
5225;SDS011;2632;51.666;7.146;2023-03-05T02:17:58;4.07;;;2.00;;
5225;SDS011;2632;51.666;7.146;2023-03-05T02:20:27;8.77;;;2.20;;
5225;SDS011;2632;51.666;7.146;2023-03-05T02:22:55;5.97;;;1.60;;
5225;SDS011;2632;51.666;7.146;2023-03-05T02:25:24;4.33;;;1.83;;
5225;SDS011;2632;51.666;7.146;2023-03-05T02:30:43;8.70;;;2.23;;
5225;SDS011;2632;51.666;7.146;2023-03-05T02:33:09;4.47;;;1.97;;
5225;SDS011;2632;51.666;7.146;2023-03-05T02:35:38;3.10;;;1.77;;
5225;SDS011;2632;51.666;7.146;2023-03-05T02:38:04;6.00;;;1.60;;
5225;SDS011;2632;51.666;7.146;2023-03-05T02:40:31;3.93;;;1.43;;
5225;SDS011;2632;51.666;7.146;2023-03-05T02:42:58;3.40;;;1.50;;
5225;SDS011;2632;51.666;7.146;2023-03-05T02:45:24;6.00;;;1.80;;
5225;SDS011;2632;51.666;7.146;2023-03-05T02:47:51;4.90;;;1.63;;
5225;SDS011;2632;51.666;7.146;2023-03-05T02:50:17;6.27;;;1.60;;
5225;SDS011;2632;51.666;7.146;2023-03-05T02:52:44;5.73;;;2.33;;
5225;SDS011;2632;51.666;7.146;2023-03-05T02:55:11;5.53;;;1.77;;
5225;SDS011;2632;51.666;7.146;2023-03-05T02:57:38;8.10;;;2.20;;
5225;SDS011;2632;51.666;7.146;2023-03-05T03:00:05;10.10;;;1.80;;
5225;SDS011;2632;51.666;7.146;2023-03-05T03:02:32;3.10;;;1.60;;
5225;SDS011;2632;51.666;7.146;2023-03-05T03:04:59;9.43;;;2.53;;
5225;SDS011;2632;51.666;7.146;2023-03-05T03:07:25;14.83;;;3.00;;
5225;SDS011;2632;51.666;7.146;2023-03-05T03:09:52;4.00;;;2.10;;
5225;SDS011;2632;51.666;7.146;2023-03-05T03:12:19;7.03;;;2.47;;
5225;SDS011;2632;51.666;7.146;2023-03-05T03:14:45;10.73;;;2.03;;
5225;SDS011;2632;51.666;7.146;2023-03-05T03:17:12;7.13;;;2.40;;
5225;SDS011;2632;51.666;7.146;2023-03-05T03:19:41;8.17;;;4.30;;
5225;SDS011;2632;51.666;7.146;2023-03-05T03:22:09;6.73;;;2.00;;
5225;SDS011;2632;51.666;7.146;2023-03-05T03:24:37;10.83;;;2.77;;
5225;SDS011;2632;51.666;7.146;2023-03-05T03:27:04;8.03;;;2.50;;
5225;SDS011;2632;51.666;7.146;2023-03-05T03:29:31;4.97;;;2.30;;
5225;SDS011;2632;51.666;7.146;2023-03-05T03:31:58;5.50;;;2.57;;
5225;SDS011;2632;51.666;7.146;2023-03-05T03:34:25;6.27;;;2.30;;
5225;SDS011;2632;51.666;7.146;2023-03-05T03:36:52;5.13;;;2.50;;
5225;SDS011;2632;51.666;7.146;2023-03-05T03:39:19;14.37;;;2.60;;
5225;SDS011;2632;51.666;7.146;2023-03-05T03:41:48;4.10;;;2.30;;
5225;SDS011;2632;51.666;7.146;2023-03-05T03:44:16;4.83;;;2.40;;
5225;SDS011;2632;51.666;7.146;2023-03-05T03:46:44;7.67;;;2.70;;
5225;SDS011;2632;51.666;7.146;2023-03-05T03:49:17;8.77;;;3.13;;
5225;SDS011;2632;51.666;7.146;2023-03-05T03:51:45;7.60;;;2.63;;
5225;SDS011;2632;51.666;7.146;2023-03-05T03:54:14;10.53;;;2.90;;
5225;SDS011;2632;51.666;7.146;2023-03-05T03:56:41;7.57;;;3.27;;
5225;SDS011;2632;51.666;7.146;2023-03-05T03:59:08;9.30;;;3.43;;
5225;SDS011;2632;51.666;7.146;2023-03-05T04:01:35;9.17;;;3.60;;
5225;SDS011;2632;51.666;7.146;2023-03-05T04:04:02;7.83;;;3.63;;
5225;SDS011;2632;51.666;7.146;2023-03-05T04:06:30;7.73;;;2.70;;
5225;SDS011;2632;51.666;7.146;2023-03-05T04:08:57;5.90;;;3.27;;
5225;SDS011;2632;51.666;7.146;2023-03-05T04:11:24;11.90;;;3.37;;
5225;SDS011;2632;51.666;7.146;2023-03-05T04:13:51;11.40;;;4.23;;
5225;SDS011;2632;51.666;7.146;2023-03-05T04:16:17;7.30;;;3.47;;
5225;SDS011;2632;51.666;7.146;2023-03-05T04:18:44;12.73;;;3.93;;
5225;SDS011;2632;51.666;7.146;2023-03-05T04:21:11;11.87;;;3.57;;
5225;SDS011;2632;51.666;7.146;2023-03-05T04:23:38;6.40;;;3.37;;
5225;SDS011;2632;51.666;7.146;2023-03-05T04:26:05;6.43;;;4.07;;
5225;SDS011;2632;51.666;7.146;2023-03-05T04:28:31;7.80;;;3.83;;
5225;SDS011;2632;51.666;7.146;2023-03-05T04:30:58;5.40;;;2.87;;
5225;SDS011;2632;51.666;7.146;2023-03-05T04:33:25;7.30;;;2.83;;
5225;SDS011;2632;51.666;7.146;2023-03-05T04:35:52;6.70;;;3.00;;
5225;SDS011;2632;51.666;7.146;2023-03-05T04:38:18;7.07;;;3.00;;
5225;SDS011;2632;51.666;7.146;2023-03-05T04:40:45;7.63;;;2.93;;
5225;SDS011;2632;51.666;7.146;2023-03-05T04:43:12;10.70;;;3.20;;
5225;SDS011;2632;51.666;7.146;2023-03-05T04:45:39;6.50;;;3.13;;
5225;SDS011;2632;51.666;7.146;2023-03-05T04:48:07;8.33;;;2.80;;
5225;SDS011;2632;51.666;7.146;2023-03-05T04:50:35;8.93;;;2.93;;
5225;SDS011;2632;51.666;7.146;2023-03-05T04:53:02;4.83;;;2.60;;
5225;SDS011;2632;51.666;7.146;2023-03-05T04:55:29;5.30;;;3.00;;
5225;SDS011;2632;51.666;7.146;2023-03-05T04:57:56;7.53;;;3.20;;
5225;SDS011;2632;51.666;7.146;2023-03-05T05:00:23;5.70;;;3.03;;
5225;SDS011;2632;51.666;7.146;2023-03-05T05:02:50;9.67;;;2.93;;
5225;SDS011;2632;51.666;7.146;2023-03-05T05:05:18;8.43;;;3.10;;
5225;SDS011;2632;51.666;7.146;2023-03-05T05:07:47;9.90;;;3.43;;
5225;SDS011;2632;51.666;7.146;2023-03-05T05:10:14;10.50;;;4.27;;
5225;SDS011;2632;51.666;7.146;2023-03-05T05:12:41;10.63;;;3.90;;
5225;SDS011;2632;51.666;7.146;2023-03-05T05:15:08;13.13;;;4.27;;
5225;SDS011;2632;51.666;7.146;2023-03-05T05:17:36;12.63;;;3.27;;
5225;SDS011;2632;51.666;7.146;2023-03-05T05:20:04;10.93;;;4.20;;
5225;SDS011;2632;51.666;7.146;2023-03-05T05:22:31;12.57;;;3.20;;
5225;SDS011;2632;51.666;7.146;2023-03-05T05:24:59;10.13;;;3.70;;
5225;SDS011;2632;51.666;7.146;2023-03-05T05:27:26;12.90;;;4.03;;
5225;SDS011;2632;51.666;7.146;2023-03-05T05:29:52;11.70;;;4.17;;
5225;SDS011;2632;51.666;7.146;2023-03-05T05:32:20;6.30;;;3.43;;
5225;SDS011;2632;51.666;7.146;2023-03-05T05:34:47;9.17;;;3.90;;
5225;SDS011;2632;51.666;7.146;2023-03-05T05:37:14;8.63;;;3.47;;
5225;SDS011;2632;51.666;7.146;2023-03-05T05:39:41;9.00;;;3.27;;
5225;SDS011;2632;51.666;7.146;2023-03-05T05:42:07;9.13;;;3.33;;
5225;SDS011;2632;51.666;7.146;2023-03-05T05:44:36;11.07;;;3.90;;
5225;SDS011;2632;51.666;7.146;2023-03-05T05:47:03;6.83;;;4.13;;
5225;SDS011;2632;51.666;7.146;2023-03-05T05:49:29;6.03;;;3.60;;
5225;SDS011;2632;51.666;7.146;2023-03-05T05:51:56;10.47;;;4.10;;
5225;SDS011;2632;51.666;7.146;2023-03-05T05:54:24;12.97;;;3.70;;
5225;SDS011;2632;51.666;7.146;2023-03-05T05:56:50;7.60;;;3.67;;
5225;SDS011;2632;51.666;7.146;2023-03-05T05:59:17;11.63;;;3.80;;
5225;SDS011;2632;51.666;7.146;2023-03-05T06:01:44;14.60;;;3.93;;
5225;SDS011;2632;51.666;7.146;2023-03-05T06:04:10;6.30;;;4.37;;
5225;SDS011;2632;51.666;7.146;2023-03-05T06:06:37;9.13;;;3.63;;
5225;SDS011;2632;51.666;7.146;2023-03-05T06:09:03;13.73;;;3.30;;
5225;SDS011;2632;51.666;7.146;2023-03-05T06:11:30;6.80;;;2.93;;
5225;SDS011;2632;51.666;7.146;2023-03-05T06:13:57;8.30;;;3.53;;
5225;SDS011;2632;51.666;7.146;2023-03-05T06:16:24;12.33;;;4.60;;
5225;SDS011;2632;51.666;7.146;2023-03-05T06:18:51;9.37;;;4.13;;
5225;SDS011;2632;51.666;7.146;2023-03-05T06:21:19;8.70;;;3.30;;
5225;SDS011;2632;51.666;7.146;2023-03-05T06:23:47;10.80;;;4.17;;
5225;SDS011;2632;51.666;7.146;2023-03-05T06:26:15;6.90;;;3.57;;
5225;SDS011;2632;51.666;7.146;2023-03-05T06:28:44;11.63;;;3.77;;
5225;SDS011;2632;51.666;7.146;2023-03-05T06:31:13;5.77;;;3.30;;
5225;SDS011;2632;51.666;7.146;2023-03-05T06:33:41;6.40;;;3.70;;
5225;SDS011;2632;51.666;7.146;2023-03-05T06:36:10;6.93;;;3.47;;
5225;SDS011;2632;51.666;7.146;2023-03-05T06:38:38;11.47;;;4.27;;
5225;SDS011;2632;51.666;7.146;2023-03-05T06:41:07;9.43;;;3.27;;
5225;SDS011;2632;51.666;7.146;2023-03-05T06:43:37;9.43;;;3.87;;
5225;SDS011;2632;51.666;7.146;2023-03-05T06:46:07;8.37;;;3.43;;
5225;SDS011;2632;51.666;7.146;2023-03-05T06:48:38;14.47;;;4.80;;
5225;SDS011;2632;51.666;7.146;2023-03-05T06:51:11;9.40;;;3.80;;
5225;SDS011;2632;51.666;7.146;2023-03-05T06:53:46;9.97;;;4.47;;
5225;SDS011;2632;51.666;7.146;2023-03-05T06:56:14;13.43;;;4.07;;
5225;SDS011;2632;51.666;7.146;2023-03-05T06:58:42;9.70;;;4.13;;
5225;SDS011;2632;51.666;7.146;2023-03-05T07:01:13;10.73;;;3.77;;
5225;SDS011;2632;51.666;7.146;2023-03-05T07:03:40;10.23;;;3.40;;
5225;SDS011;2632;51.666;7.146;2023-03-05T07:06:09;10.80;;;3.90;;
5225;SDS011;2632;51.666;7.146;2023-03-05T07:08:41;6.30;;;3.63;;
5225;SDS011;2632;51.666;7.146;2023-03-05T07:11:10;9.13;;;3.90;;
5225;SDS011;2632;51.666;7.146;2023-03-05T07:13:40;17.50;;;5.03;;
5225;SDS011;2632;51.666;7.146;2023-03-05T07:16:09;10.83;;;3.97;;
5225;SDS011;2632;51.666;7.146;2023-03-05T07:18:39;17.03;;;4.13;;
5225;SDS011;2632;51.666;7.146;2023-03-05T07:21:09;11.80;;;3.83;;
5225;SDS011;2632;51.666;7.146;2023-03-05T07:23:39;6.33;;;3.93;;
5225;SDS011;2632;51.666;7.146;2023-03-05T07:26:06;9.47;;;3.80;;
5225;SDS011;2632;51.666;7.146;2023-03-05T07:28:33;9.97;;;4.40;;
5225;SDS011;2632;51.666;7.146;2023-03-05T07:31:04;11.93;;;3.73;;
5225;SDS011;2632;51.666;7.146;2023-03-05T07:33:33;13.90;;;5.23;;
5225;SDS011;2632;51.666;7.146;2023-03-05T07:36:02;9.87;;;3.97;;
5225;SDS011;2632;51.666;7.146;2023-03-05T07:38:30;9.33;;;4.40;;
5225;SDS011;2632;51.666;7.146;2023-03-05T07:41:00;12.13;;;4.20;;
5225;SDS011;2632;51.666;7.146;2023-03-05T07:43:28;10.77;;;5.20;;
5225;SDS011;2632;51.666;7.146;2023-03-05T07:45:55;14.50;;;4.80;;
5225;SDS011;2632;51.666;7.146;2023-03-05T07:48:22;10.10;;;4.00;;
5225;SDS011;2632;51.666;7.146;2023-03-05T07:50:49;10.07;;;4.80;;
5225;SDS011;2632;51.666;7.146;2023-03-05T07:53:15;16.17;;;5.83;;
5225;SDS011;2632;51.666;7.146;2023-03-05T07:55:43;10.17;;;4.77;;
5225;SDS011;2632;51.666;7.146;2023-03-05T07:58:10;10.57;;;4.80;;
5225;SDS011;2632;51.666;7.146;2023-03-05T08:00:39;11.33;;;4.23;;
5225;SDS011;2632;51.666;7.146;2023-03-05T08:03:06;6.30;;;4.87;;
5225;SDS011;2632;51.666;7.146;2023-03-05T08:05:32;14.53;;;5.73;;
5225;SDS011;2632;51.666;7.146;2023-03-05T08:07:59;13.53;;;4.30;;
5225;SDS011;2632;51.666;7.146;2023-03-05T08:10:26;9.70;;;4.80;;
5225;SDS011;2632;51.666;7.146;2023-03-05T08:12:53;12.60;;;4.40;;
5225;SDS011;2632;51.666;7.146;2023-03-05T08:15:19;8.30;;;4.30;;
5225;SDS011;2632;51.666;7.146;2023-03-05T08:17:46;9.83;;;4.17;;
5225;SDS011;2632;51.666;7.146;2023-03-05T08:20:12;8.50;;;4.20;;
5225;SDS011;2632;51.666;7.146;2023-03-05T08:22:39;11.50;;;4.03;;
5225;SDS011;2632;51.666;7.146;2023-03-05T08:25:06;13.53;;;3.77;;
5225;SDS011;2632;51.666;7.146;2023-03-05T08:27:37;6.70;;;4.20;;
5225;SDS011;2632;51.666;7.146;2023-03-05T08:30:06;8.30;;;4.10;;
5225;SDS011;2632;51.666;7.146;2023-03-05T08:32:34;9.10;;;3.73;;
5225;SDS011;2632;51.666;7.146;2023-03-05T08:35:01;12.57;;;4.37;;
5225;SDS011;2632;51.666;7.146;2023-03-05T08:37:29;7.40;;;4.37;;
5225;SDS011;2632;51.666;7.146;2023-03-05T08:39:56;6.80;;;3.33;;
5225;SDS011;2632;51.666;7.146;2023-03-05T08:42:23;5.47;;;3.37;;
5225;SDS011;2632;51.666;7.146;2023-03-05T08:44:50;9.47;;;3.70;;
5225;SDS011;2632;51.666;7.146;2023-03-05T08:47:17;7.10;;;3.70;;
5225;SDS011;2632;51.666;7.146;2023-03-05T08:49:44;6.43;;;3.70;;
5225;SDS011;2632;51.666;7.146;2023-03-05T08:52:11;7.37;;;3.60;;
5225;SDS011;2632;51.666;7.146;2023-03-05T08:54:38;3.73;;;2.33;;
5225;SDS011;2632;51.666;7.146;2023-03-05T08:57:04;7.13;;;2.90;;
5225;SDS011;2632;51.666;7.146;2023-03-05T08:59:31;3.20;;;2.00;;
5225;SDS011;2632;51.666;7.146;2023-03-05T09:02:01;3.40;;;1.90;;
5225;SDS011;2632;51.666;7.146;2023-03-05T09:04:27;3.80;;;1.73;;
5225;SDS011;2632;51.666;7.146;2023-03-05T09:06:55;1.80;;;1.33;;
5225;SDS011;2632;51.666;7.146;2023-03-05T09:09:22;2.97;;;1.67;;
5225;SDS011;2632;51.666;7.146;2023-03-05T09:11:50;3.10;;;1.40;;
5225;SDS011;2632;51.666;7.146;2023-03-05T09:14:17;2.27;;;1.90;;
5225;SDS011;2632;51.666;7.146;2023-03-05T09:16:43;5.50;;;2.70;;
5225;SDS011;2632;51.666;7.146;2023-03-05T09:19:10;3.93;;;2.43;;
5225;SDS011;2632;51.666;7.146;2023-03-05T09:21:40;5.60;;;3.30;;
5225;SDS011;2632;51.666;7.146;2023-03-05T09:24:07;3.47;;;3.17;;
5225;SDS011;2632;51.666;7.146;2023-03-05T09:26:34;4.77;;;2.70;;
5225;SDS011;2632;51.666;7.146;2023-03-05T09:29:00;9.33;;;3.57;;
5225;SDS011;2632;51.666;7.146;2023-03-05T09:31:27;8.50;;;3.77;;
5225;SDS011;2632;51.666;7.146;2023-03-05T09:33:54;15.03;;;4.77;;
5225;SDS011;2632;51.666;7.146;2023-03-05T09:36:22;9.93;;;4.47;;
5225;SDS011;2632;51.666;7.146;2023-03-05T09:38:51;6.77;;;4.47;;
5225;SDS011;2632;51.666;7.146;2023-03-05T09:47:26;8.53;;;4.23;;
5225;SDS011;2632;51.666;7.146;2023-03-05T09:53:17;8.70;;;4.20;;
5225;SDS011;2632;51.666;7.146;2023-03-05T09:55:46;8.37;;;4.70;;
5225;SDS011;2632;51.666;7.146;2023-03-05T09:58:36;8.80;;;4.80;;
5225;SDS011;2632;51.666;7.146;2023-03-05T10:01:18;7.40;;;4.27;;
5225;SDS011;2632;51.666;7.146;2023-03-05T10:03:56;6.50;;;4.10;;
5225;SDS011;2632;51.666;7.146;2023-03-05T10:15:12;10.50;;;4.57;;
5225;SDS011;2632;51.666;7.146;2023-03-05T10:23:22;9.20;;;4.40;;
5225;SDS011;2632;51.666;7.146;2023-03-05T10:28:47;6.50;;;4.00;;
5225;SDS011;2632;51.666;7.146;2023-03-05T10:36:42;3.93;;;2.47;;
5225;SDS011;2632;51.666;7.146;2023-03-05T10:45:00;2.60;;;2.03;;
5225;SDS011;2632;51.666;7.146;2023-03-05T10:47:48;2.67;;;1.63;;
5225;SDS011;2632;51.666;7.146;2023-03-05T10:50:24;4.77;;;2.30;;
5225;SDS011;2632;51.666;7.146;2023-03-05T10:55:43;1.90;;;1.63;;
5225;SDS011;2632;51.666;7.146;2023-03-05T10:58:14;3.13;;;1.80;;
5225;SDS011;2632;51.666;7.146;2023-03-05T11:06:32;4.67;;;1.77;;
5225;SDS011;2632;51.666;7.146;2023-03-05T11:09:14;2.10;;;1.40;;
5225;SDS011;2632;51.666;7.146;2023-03-05T11:14:30;1.80;;;1.50;;
5225;SDS011;2632;51.666;7.146;2023-03-05T11:17:01;2.60;;;1.77;;
5225;SDS011;2632;51.666;7.146;2023-03-05T11:19:47;2.73;;;1.50;;
5225;SDS011;2632;51.666;7.146;2023-03-05T11:22:21;1.57;;;1.27;;
5225;SDS011;2632;51.666;7.146;2023-03-05T11:25:04;2.73;;;1.40;;
5225;SDS011;2632;51.666;7.146;2023-03-05T11:30:27;3.50;;;2.03;;
5225;SDS011;2632;51.666;7.146;2023-03-05T11:35:45;3.33;;;2.50;;
5225;SDS011;2632;51.666;7.146;2023-03-05T11:38:20;5.00;;;2.00;;
5225;SDS011;2632;51.666;7.146;2023-03-05T11:40:54;7.47;;;2.90;;
5225;SDS011;2632;51.666;7.146;2023-03-05T11:43:22;4.77;;;1.70;;
5225;SDS011;2632;51.666;7.146;2023-03-05T11:45:51;3.23;;;2.00;;
5225;SDS011;2632;51.666;7.146;2023-03-05T11:48:36;4.33;;;1.70;;
5225;SDS011;2632;51.666;7.146;2023-03-05T11:51:07;3.67;;;2.10;;
5225;SDS011;2632;51.666;7.146;2023-03-05T11:53:40;2.90;;;1.60;;
5225;SDS011;2632;51.666;7.146;2023-03-05T11:56:26;2.70;;;1.13;;
5225;SDS011;2632;51.666;7.146;2023-03-05T11:59:00;1.93;;;1.47;;
5225;SDS011;2632;51.666;7.146;2023-03-05T12:01:41;4.67;;;2.33;;
5225;SDS011;2632;51.666;7.146;2023-03-05T12:04:14;3.73;;;1.90;;
5225;SDS011;2632;51.666;7.146;2023-03-05T12:06:43;2.33;;;1.70;;
5225;SDS011;2632;51.666;7.146;2023-03-05T12:11:56;2.83;;;1.63;;
5225;SDS011;2632;51.666;7.146;2023-03-05T12:14:47;2.20;;;1.47;;
5225;SDS011;2632;51.666;7.146;2023-03-05T12:17:24;2.07;;;1.70;;
5225;SDS011;2632;51.666;7.146;2023-03-05T12:20:02;2.60;;;1.80;;
5225;SDS011;2632;51.666;7.146;2023-03-05T12:22:38;3.67;;;1.57;;
5225;SDS011;2632;51.666;7.146;2023-03-05T12:27:57;2.70;;;1.53;;
5225;SDS011;2632;51.666;7.146;2023-03-05T12:33:28;2.23;;;1.60;;
5225;SDS011;2632;51.666;7.146;2023-03-05T12:38:50;2.00;;;1.40;;
5225;SDS011;2632;51.666;7.146;2023-03-05T12:46:39;6.70;;;1.70;;
5225;SDS011;2632;51.666;7.146;2023-03-05T12:51:53;1.73;;;1.03;;
5225;SDS011;2632;51.666;7.146;2023-03-05T12:57:05;3.87;;;1.67;;
5225;SDS011;2632;51.666;7.146;2023-03-05T12:59:53;2.40;;;1.20;;
5225;SDS011;2632;51.666;7.146;2023-03-05T13:02:47;2.77;;;1.20;;
5225;SDS011;2632;51.666;7.146;2023-03-05T13:05:34;2.20;;;1.30;;
5225;SDS011;2632;51.666;7.146;2023-03-05T13:10:51;1.97;;;0.93;;
5225;SDS011;2632;51.666;7.146;2023-03-05T13:13:24;1.77;;;1.10;;
5225;SDS011;2632;51.666;7.146;2023-03-05T13:15:53;1.20;;;1.10;;
5225;SDS011;2632;51.666;7.146;2023-03-05T13:18:22;1.20;;;0.97;;
5225;SDS011;2632;51.666;7.146;2023-03-05T13:21:02;2.60;;;1.00;;
5225;SDS011;2632;51.666;7.146;2023-03-05T13:23:30;1.67;;;1.10;;
5225;SDS011;2632;51.666;7.146;2023-03-05T13:26:13;2.53;;;0.97;;
5225;SDS011;2632;51.666;7.146;2023-03-05T13:28:44;1.00;;;0.90;;
5225;SDS011;2632;51.666;7.146;2023-03-05T13:31:30;2.63;;;1.10;;
5225;SDS011;2632;51.666;7.146;2023-03-05T13:33:58;2.20;;;1.00;;
5225;SDS011;2632;51.666;7.146;2023-03-05T13:36:44;1.33;;;1.00;;
5225;SDS011;2632;51.666;7.146;2023-03-05T13:39:18;2.90;;;1.03;;
5225;SDS011;2632;51.666;7.146;2023-03-05T13:41:57;2.10;;;0.67;;
5225;SDS011;2632;51.666;7.146;2023-03-05T13:44:26;1.30;;;1.00;;
5225;SDS011;2632;51.666;7.146;2023-03-05T13:47:05;1.40;;;0.80;;
5225;SDS011;2632;51.666;7.146;2023-03-05T13:49:33;2.17;;;0.83;;
5225;SDS011;2632;51.666;7.146;2023-03-05T13:52:00;1.87;;;0.87;;
5225;SDS011;2632;51.666;7.146;2023-03-05T13:54:28;1.60;;;0.90;;
5225;SDS011;2632;51.666;7.146;2023-03-05T13:59:23;2.73;;;1.17;;
5225;SDS011;2632;51.666;7.146;2023-03-05T14:02:01;3.77;;;0.80;;
5225;SDS011;2632;51.666;7.146;2023-03-05T14:04:43;2.00;;;0.90;;
5225;SDS011;2632;51.666;7.146;2023-03-05T14:09:52;2.60;;;1.50;;
5225;SDS011;2632;51.666;7.146;2023-03-05T14:12:37;3.70;;;1.73;;
5225;SDS011;2632;51.666;7.146;2023-03-05T14:17:49;1.43;;;0.80;;
5225;SDS011;2632;51.666;7.146;2023-03-05T14:20:17;10.00;;;0.90;;
5225;SDS011;2632;51.666;7.146;2023-03-05T14:22:49;2.77;;;0.90;;
5225;SDS011;2632;51.666;7.146;2023-03-05T14:25:35;2.70;;;1.00;;
5225;SDS011;2632;51.666;7.146;2023-03-05T14:28:06;1.60;;;1.00;;
5225;SDS011;2632;51.666;7.146;2023-03-05T14:30:47;3.27;;;1.00;;
5225;SDS011;2632;51.666;7.146;2023-03-05T14:33:24;1.23;;;0.90;;
5225;SDS011;2632;51.666;7.146;2023-03-05T14:35:54;1.27;;;0.70;;
5225;SDS011;2632;51.666;7.146;2023-03-05T14:38:25;3.23;;;1.13;;
5225;SDS011;2632;51.666;7.146;2023-03-05T14:40:54;5.27;;;1.03;;
5225;SDS011;2632;51.666;7.146;2023-03-05T14:43:21;3.63;;;1.40;;
5225;SDS011;2632;51.666;7.146;2023-03-05T14:45:48;1.93;;;1.13;;
5225;SDS011;2632;51.666;7.146;2023-03-05T14:48:16;1.40;;;1.17;;
5225;SDS011;2632;51.666;7.146;2023-03-05T14:50:53;2.57;;;1.27;;
5225;SDS011;2632;51.666;7.146;2023-03-05T14:53:26;2.43;;;1.30;;
5225;SDS011;2632;51.666;7.146;2023-03-05T14:55:55;3.27;;;1.70;;
5225;SDS011;2632;51.666;7.146;2023-03-05T14:58:23;2.30;;;1.70;;
5225;SDS011;2632;51.666;7.146;2023-03-05T15:00:52;4.47;;;2.30;;
5225;SDS011;2632;51.666;7.146;2023-03-05T15:03:20;6.10;;;2.63;;
5225;SDS011;2632;51.666;7.146;2023-03-05T15:05:51;2.60;;;1.70;;
5225;SDS011;2632;51.666;7.146;2023-03-05T15:08:21;3.73;;;2.20;;
5225;SDS011;2632;51.666;7.146;2023-03-05T15:10:53;8.33;;;3.33;;
5225;SDS011;2632;51.666;7.146;2023-03-05T15:13:20;4.33;;;2.63;;
5225;SDS011;2632;51.666;7.146;2023-03-05T15:15:47;6.93;;;3.60;;
5225;SDS011;2632;51.666;7.146;2023-03-05T15:18:19;5.23;;;3.23;;
5225;SDS011;2632;51.666;7.146;2023-03-05T15:20:47;2.93;;;1.73;;
5225;SDS011;2632;51.666;7.146;2023-03-05T15:23:14;2.00;;;1.70;;
5225;SDS011;2632;51.666;7.146;2023-03-05T15:25:41;5.57;;;2.10;;
5225;SDS011;2632;51.666;7.146;2023-03-05T15:28:08;2.50;;;2.30;;
5225;SDS011;2632;51.666;7.146;2023-03-05T15:30:36;2.77;;;2.57;;
5225;SDS011;2632;51.666;7.146;2023-03-05T15:33:09;2.87;;;1.97;;
5225;SDS011;2632;51.666;7.146;2023-03-05T15:35:37;3.20;;;2.20;;
5225;SDS011;2632;51.666;7.146;2023-03-05T15:38:05;7.10;;;3.80;;
5225;SDS011;2632;51.666;7.146;2023-03-05T15:40:32;17.73;;;9.40;;
5225;SDS011;2632;51.666;7.146;2023-03-05T15:42:59;13.43;;;6.43;;
5225;SDS011;2632;51.666;7.146;2023-03-05T15:45:26;7.50;;;4.70;;
5225;SDS011;2632;51.666;7.146;2023-03-05T15:47:53;5.03;;;2.40;;
5225;SDS011;2632;51.666;7.146;2023-03-05T15:50:19;5.50;;;2.23;;
5225;SDS011;2632;51.666;7.146;2023-03-05T15:52:47;7.70;;;3.30;;
5225;SDS011;2632;51.666;7.146;2023-03-05T15:55:15;4.13;;;2.57;;
5225;SDS011;2632;51.666;7.146;2023-03-05T15:57:44;4.90;;;2.80;;
5225;SDS011;2632;51.666;7.146;2023-03-05T16:00:14;6.60;;;2.70;;
5225;SDS011;2632;51.666;7.146;2023-03-05T16:02:43;12.27;;;4.33;;
5225;SDS011;2632;51.666;7.146;2023-03-05T16:05:10;9.00;;;4.33;;
5225;SDS011;2632;51.666;7.146;2023-03-05T16:07:37;10.60;;;3.93;;
5225;SDS011;2632;51.666;7.146;2023-03-05T16:10:05;7.63;;;2.93;;
5225;SDS011;2632;51.666;7.146;2023-03-05T16:12:36;2.73;;;2.00;;
5225;SDS011;2632;51.666;7.146;2023-03-05T16:15:06;2.10;;;1.80;;
5225;SDS011;2632;51.666;7.146;2023-03-05T16:17:35;2.80;;;2.33;;
5225;SDS011;2632;51.666;7.146;2023-03-05T16:20:03;4.60;;;3.43;;
5225;SDS011;2632;51.666;7.146;2023-03-05T16:22:31;4.53;;;2.43;;
5225;SDS011;2632;51.666;7.146;2023-03-05T16:25:01;4.30;;;2.13;;
5225;SDS011;2632;51.666;7.146;2023-03-05T16:27:27;3.10;;;2.60;;
5225;SDS011;2632;51.666;7.146;2023-03-05T16:29:54;4.33;;;2.80;;
5225;SDS011;2632;51.666;7.146;2023-03-05T16:32:23;3.00;;;2.10;;
5225;SDS011;2632;51.666;7.146;2023-03-05T16:34:50;3.20;;;2.30;;
5225;SDS011;2632;51.666;7.146;2023-03-05T16:37:19;2.97;;;2.30;;
5225;SDS011;2632;51.666;7.146;2023-03-05T16:39:47;4.10;;;1.90;;
5225;SDS011;2632;51.666;7.146;2023-03-05T16:42:14;5.90;;;2.40;;
5225;SDS011;2632;51.666;7.146;2023-03-05T16:44:41;2.43;;;1.97;;
5225;SDS011;2632;51.666;7.146;2023-03-05T16:47:09;3.67;;;2.20;;
5225;SDS011;2632;51.666;7.146;2023-03-05T16:49:37;4.33;;;2.40;;
5225;SDS011;2632;51.666;7.146;2023-03-05T16:52:04;3.83;;;1.90;;
5225;SDS011;2632;51.666;7.146;2023-03-05T16:54:44;3.53;;;2.13;;
5225;SDS011;2632;51.666;7.146;2023-03-05T16:57:11;7.80;;;2.30;;
5225;SDS011;2632;51.666;7.146;2023-03-05T16:59:38;7.03;;;2.80;;
5225;SDS011;2632;51.666;7.146;2023-03-05T17:02:05;4.27;;;2.50;;